Transou, NC

11:23 AM EST on February 22, 2017 (GMT -0500)
Laurel Springs | | Change Station

Elev 3030 ft 36.42 °N, 81.30 °W | Updated 1 minute ago

Rain
Rain
49.2 °F
Feels Like 49 °F
N
3.0
Wind Variable Wind from SE
Gusts 3.0 mph

Today
High -- | Low -- °F
--% Chance of Precip.
Yesterday
High -- | Low -- °F
Precip. -- in
Pressure 30.03 in
Visibility 2.5 miles
Clouds Mostly Cloudy 2000 ft
Overcast 4300 ft
Windchill 49 °F
Dew Point 47 °F
Humidity 90%
Rainfall 0.23 in
Snow Depth Not available.
7:04 AM 6:13 PM
Waning Crescent, 16% visible
METAR KGEV 221620Z AUTO 00000KT 2 1/2SM RA BKN020 OVC043 09/08 A3003 RMK AO2 T00850082
Pressure 30.03 in
Visibility 2.5 miles
Clouds Mostly Cloudy 2000 ft
Overcast 4300 ft
Windchill 49 °F
Dew Point 47 °F
Humidity 90%
Rainfall 0.23 in
Snow Depth Not available.
7:04 AM 6:13 PM
Waning Crescent, 16% visible
METAR KGEV 221620Z AUTO 00000KT 2 1/2SM RA BKN020 OVC043 09/08 A3003 RMK AO2 T00850082

Get Your Daily Forecast Email!

Thanks for signing up!

Be on the lookout for a verification email in your inbox.

You'll start receiving the daily forecast at 8 AM.

×

10-Day Weather Forecast

Almanac

Astronomy

Feb. 22, 2017 Rise Set
Actual Time
Civil Twilight
Nautical Twilight
Astronomical Twilight
Moon
Length of Visible Light
Length of Day
Tomorrow will be .
, % of the Moon is Illuminated

Today's Extremes

State Highs State Lows

Community

WunderPhotos

Upload Photos

1,962,540 photos uploaded!

WunderBlog® & News

Nearby

Air Quality

  Air Quality AQ Index Pollutant
Not available.

Snow Depth

Station Depth Elevation

Earthquake Activity

City Distance Mag. Time & Date
Minimum magnitude displayed is 2.5.

Coastal Water Temperatures

Place Temperature

Stations

Nearby Weather Stations

Station Location Temp. Windchill Dew Point Humidity Wind Precip. Elev Updated Type
                   

Watches & Warnings

There are currently no watches in effect.